createdAt,value
2018-11-05T00:02:23.234Z,5.60
2018-11-05T00:04:52.236Z,5.70
2018-11-05T00:07:20.673Z,5.70
2018-11-05T00:09:49.160Z,5.60
2018-11-05T00:12:18.246Z,5.60
2018-11-05T00:14:46.755Z,5.50
2018-11-05T00:17:15.923Z,5.40
2018-11-05T00:19:44.845Z,5.20
2018-11-05T00:22:13.503Z,5.20
2018-11-05T00:24:42.256Z,5.20
2018-11-05T00:27:10.738Z,5.40
2018-11-05T00:29:39.174Z,5.40
2018-11-05T00:32:08.162Z,5.40
2018-11-05T00:34:36.456Z,5.40
2018-11-05T00:37:05.138Z,5.30
2018-11-05T00:39:34.247Z,5.20
2018-11-05T00:42:02.771Z,5.10
2018-11-05T00:44:31.239Z,5.00
2018-11-05T00:46:59.932Z,5.10
2018-11-05T00:49:28.379Z,5.00
2018-11-05T00:51:57.633Z,5.20
2018-11-05T00:54:26.728Z,5.30
2018-11-05T00:56:55.194Z,5.40
2018-11-05T00:59:24.319Z,5.50
2018-11-05T01:01:53.367Z,5.40
2018-11-05T01:04:22.211Z,5.40
2018-11-05T01:06:51.064Z,5.40
2018-11-05T01:09:20.194Z,5.30
2018-11-05T01:11:48.591Z,5.20
2018-11-05T01:14:17.618Z,5.20
2018-11-05T01:16:46.063Z,5.20
2018-11-05T01:19:14.678Z,5.20
2018-11-05T01:21:43.114Z,5.10
2018-11-05T01:24:11.524Z,5.10
2018-11-05T01:26:40.118Z,5.00
2018-11-05T01:29:08.558Z,4.90
2018-11-05T01:31:37.996Z,4.90
2018-11-05T01:34:06.439Z,4.80
2018-11-05T01:36:35.181Z,4.70
2018-11-05T01:39:04.848Z,4.60
2018-11-05T01:41:34.142Z,4.60
2018-11-05T01:44:02.736Z,4.60
2018-11-05T01:46:31.579Z,4.70
2018-11-05T01:49:01.274Z,4.70
2018-11-05T01:51:29.808Z,4.70
2018-11-05T01:53:58.328Z,4.80
2018-11-05T01:56:27.055Z,4.80
2018-11-05T01:58:56.179Z,4.90
2018-11-05T02:01:24.868Z,5.00
2018-11-05T02:03:54.039Z,5.00
2018-11-05T02:06:22.432Z,5.10
2018-11-05T02:08:51.704Z,5.10
2018-11-05T02:11:20.187Z,5.10
2018-11-05T02:13:48.610Z,5.00
2018-11-05T02:16:17.097Z,5.00
2018-11-05T02:18:46.098Z,5.00
2018-11-05T02:21:15.335Z,5.00
2018-11-05T02:23:44.331Z,5.10
2018-11-05T02:26:13.156Z,5.10
2018-11-05T02:28:42.140Z,5.10
2018-11-05T02:31:10.549Z,5.10
2018-11-05T02:33:39.025Z,5.00
2018-11-05T02:36:07.755Z,5.00
2018-11-05T02:38:36.909Z,5.10
2018-11-05T02:41:05.633Z,5.00
2018-11-05T02:43:34.275Z,5.10
2018-11-05T02:46:03.749Z,5.00
2018-11-05T02:48:32.428Z,4.90
2018-11-05T02:51:02.024Z,4.80
2018-11-05T02:53:30.492Z,4.80
2018-11-05T02:55:59.198Z,4.80
2018-11-05T02:58:28.352Z,4.90
2018-11-05T03:00:58.316Z,4.90
2018-11-05T03:03:26.956Z,4.80
2018-11-05T03:05:55.495Z,4.80
2018-11-05T03:08:23.984Z,4.80
2018-11-05T03:10:52.999Z,4.80
2018-11-05T03:13:22.116Z,4.80
2018-11-05T03:15:50.521Z,4.80
2018-11-05T03:18:18.935Z,4.70
2018-11-05T03:20:47.724Z,4.70
2018-11-05T03:23:16.199Z,4.80
2018-11-05T03:25:46.258Z,4.70
2018-11-05T03:28:14.634Z,4.70
2018-11-05T03:30:44.289Z,4.70
2018-11-05T03:33:13.168Z,4.70
2018-11-05T03:35:42.007Z,4.70
2018-11-05T03:38:11.877Z,4.70
2018-11-05T03:40:41.019Z,4.70
2018-11-05T03:43:09.659Z,4.70
2018-11-05T03:45:38.183Z,4.70
2018-11-05T03:48:07.202Z,4.70
2018-11-05T03:50:35.913Z,4.80
2018-11-05T03:53:05.040Z,4.70
2018-11-05T03:55:34.553Z,4.70
2018-11-05T03:58:03.874Z,4.70
2018-11-05T04:00:32.961Z,4.80
2018-11-05T04:03:02.508Z,4.70
2018-11-05T04:05:31.006Z,4.70
2018-11-05T04:07:59.697Z,4.80
2018-11-05T04:10:29.024Z,4.80
2018-11-05T04:12:59.266Z,4.80
2018-11-05T04:15:28.723Z,4.80
2018-11-05T04:17:57.198Z,4.70
2018-11-05T04:20:25.821Z,4.70
2018-11-05T04:22:54.969Z,4.60
2018-11-05T04:25:23.978Z,4.60
2018-11-05T04:27:52.748Z,4.60
2018-11-05T04:30:23.397Z,4.50
2018-11-05T04:32:52.868Z,4.50
2018-11-05T04:35:21.574Z,4.50
2018-11-05T04:37:50.696Z,4.50
2018-11-05T04:40:19.578Z,4.60
2018-11-05T04:42:49.189Z,4.70
2018-11-05T04:45:18.214Z,4.70
2018-11-05T04:47:47.512Z,4.70
2018-11-05T04:50:16.963Z,4.60
2018-11-05T04:52:46.400Z,4.50
2018-11-05T04:55:15.354Z,4.50
2018-11-05T04:57:44.167Z,4.50
2018-11-05T05:00:15.750Z,4.50
2018-11-05T05:02:44.572Z,4.60
2018-11-05T05:05:14.927Z,4.50
2018-11-05T05:07:44.389Z,4.50
2018-11-05T05:10:13.404Z,4.40
2018-11-05T05:12:44.573Z,4.40
2018-11-05T05:15:14.116Z,4.40
2018-11-05T05:17:43.169Z,4.40
2018-11-05T05:20:14.429Z,4.40
2018-11-05T05:22:44.610Z,4.40
2018-11-05T05:25:13.726Z,4.40
2018-11-05T05:27:42.866Z,4.50
2018-11-05T05:30:15.546Z,4.50
2018-11-05T05:32:45.401Z,4.50
2018-11-05T05:35:14.081Z,4.40
2018-11-05T05:37:43.132Z,4.40
2018-11-05T05:40:11.945Z,4.40
2018-11-05T05:42:41.649Z,4.30
2018-11-05T05:45:11.648Z,4.20
2018-11-05T05:47:41.629Z,4.10
2018-11-05T05:50:13.563Z,4.00
2018-11-05T05:52:43.007Z,4.00
2018-11-05T05:55:12.078Z,4.00
2018-11-05T05:57:40.906Z,3.90
2018-11-05T06:00:13.016Z,4.00
2018-11-05T06:02:41.516Z,4.10
2018-11-05T06:05:11.342Z,4.20
2018-11-05T06:07:40.620Z,4.30
2018-11-05T06:10:11.029Z,4.60
2018-11-05T06:12:40.563Z,4.80
2018-11-05T06:15:13.334Z,4.90
2018-11-05T06:17:42.779Z,4.90
2018-11-05T06:20:14.394Z,4.90
2018-11-05T06:22:43.731Z,4.70
2018-11-05T06:25:12.481Z,4.70
2018-11-05T06:27:40.942Z,4.70
2018-11-05T06:30:14.097Z,4.70
2018-11-05T06:32:43.636Z,4.70
2018-11-05T06:35:13.404Z,4.60
2018-11-05T06:37:42.334Z,4.70
2018-11-05T06:40:12.890Z,4.70
2018-11-05T06:42:43.491Z,4.60
2018-11-05T06:45:15.377Z,4.60
2018-11-05T06:47:45.358Z,4.60
2018-11-05T06:50:18.071Z,4.60
2018-11-05T06:52:47.847Z,4.60
2018-11-05T06:55:16.910Z,4.50
2018-11-05T06:57:46.781Z,4.50
2018-11-05T07:00:20.884Z,4.60
2018-11-05T07:02:50.075Z,4.60
2018-11-05T07:05:19.195Z,4.70
2018-11-05T07:07:47.926Z,4.70
2018-11-05T07:10:17.082Z,4.90
2018-11-05T07:12:46.245Z,4.90
2018-11-05T07:15:16.762Z,5.00
2018-11-05T07:17:46.895Z,5.00
2018-11-05T07:20:16.607Z,5.00
2018-11-05T07:22:46.282Z,5.10
2018-11-05T07:25:15.881Z,5.10
2018-11-05T07:27:45.930Z,5.20
2018-11-05T07:30:20.397Z,5.20
2018-11-05T07:32:49.939Z,5.30
2018-11-05T07:35:18.657Z,5.30
2018-11-05T07:37:47.104Z,5.40
2018-11-05T07:40:16.944Z,5.40
2018-11-05T07:42:46.155Z,5.50
2018-11-05T07:45:16.796Z,5.50
2018-11-05T07:47:45.877Z,5.60
2018-11-05T07:50:16.515Z,5.70
2018-11-05T07:52:44.887Z,5.80
2018-11-05T07:55:14.930Z,5.80
2018-11-05T07:57:45.538Z,5.80
2018-11-05T08:00:19.617Z,5.70
2018-11-05T08:02:49.351Z,5.80
2018-11-05T08:05:18.757Z,5.80
2018-11-05T08:07:47.540Z,5.80
2018-11-05T08:10:16.193Z,6.00
2018-11-05T08:12:45.196Z,6.30
2018-11-05T08:15:18.202Z,6.70
2018-11-05T08:17:48.198Z,6.80
2018-11-05T08:20:16.882Z,7.00
2018-11-05T08:22:45.557Z,7.20
2018-11-05T08:25:15.157Z,7.50
2018-11-05T08:27:43.846Z,7.70
2018-11-05T08:30:15.583Z,7.70
2018-11-05T08:32:44.047Z,7.90
2018-11-05T08:35:13.727Z,7.80
2018-11-05T08:37:43.075Z,7.70
2018-11-05T08:40:18.096Z,8.00
2018-11-05T08:42:48.091Z,8.30
2018-11-05T08:45:17.723Z,9.20
2018-11-05T08:47:46.290Z,9.40
2018-11-05T08:50:17.397Z,9.40
2018-11-05T08:52:46.043Z,10.20
2018-11-05T08:55:20.028Z,10.90
2018-11-05T08:57:48.554Z,11.70
2018-11-05T09:00:22.538Z,12.50
2018-11-05T09:02:52.030Z,13.30
2018-11-05T09:05:20.855Z,13.70
2018-11-05T09:07:51.410Z,14.20
2018-11-05T09:10:20.140Z,14.50
2018-11-05T09:12:48.423Z,14.50
2018-11-05T09:15:18.698Z,14.90
2018-11-05T09:17:47.590Z,14.50
2018-11-05T09:20:17.067Z,14.40
2018-11-05T09:22:46.715Z,14.60
2018-11-05T09:25:16.416Z,14.50
2018-11-05T09:27:45.439Z,14.60
2018-11-05T09:30:18.798Z,14.50
2018-11-05T09:32:47.619Z,13.90
2018-11-05T09:35:16.132Z,13.00
2018-11-05T09:37:44.624Z,12.70
2018-11-05T09:40:16.867Z,12.60
2018-11-05T09:42:46.204Z,12.40
2018-11-05T09:45:20.186Z,12.30
2018-11-05T09:47:48.931Z,12.00
2018-11-05T09:50:18.712Z,11.90
2018-11-05T09:52:48.210Z,12.00
2018-11-05T09:55:17.659Z,12.10
2018-11-05T09:57:46.330Z,12.20
2018-11-05T10:00:18.033Z,12.40
2018-11-05T10:02:50.718Z,12.20
2018-11-05T10:05:20.157Z,12.40
2018-11-05T10:07:49.013Z,12.40
2018-11-05T10:10:18.257Z,12.20
2018-11-05T10:12:46.762Z,12.00
2018-11-05T10:15:16.050Z,11.80
2018-11-05T10:17:45.027Z,11.80
2018-11-05T10:20:16.117Z,11.80
2018-11-05T10:22:45.216Z,11.50
2018-11-05T10:25:14.507Z,11.40
2018-11-05T10:27:42.790Z,11.30
2018-11-05T10:30:13.836Z,11.40
2018-11-05T10:32:42.864Z,11.60
2018-11-05T10:35:13.416Z,11.50
2018-11-05T10:37:42.024Z,11.40
2018-11-05T10:40:12.954Z,11.80
2018-11-05T10:42:42.759Z,12.10
2018-11-05T10:45:13.073Z,12.40
2018-11-05T10:47:42.395Z,12.20
2018-11-05T10:50:12.989Z,12.40
2018-11-05T10:52:43.194Z,12.60
2018-11-05T10:55:11.603Z,12.80
2018-11-05T10:57:41.012Z,13.00
2018-11-05T11:00:19.238Z,12.90
2018-11-05T11:02:51.938Z,12.90
2018-11-05T11:05:20.896Z,12.90
2018-11-05T11:07:49.579Z,12.70
2018-11-05T11:10:18.203Z,12.60
2018-11-05T11:12:46.998Z,12.60
2018-11-05T11:15:15.776Z,12.60
2018-11-05T11:17:44.491Z,12.70
2018-11-05T11:20:13.930Z,12.70
2018-11-05T11:22:42.321Z,12.80
2018-11-05T11:25:11.510Z,12.80
2018-11-05T11:27:40.418Z,12.90
2018-11-05T11:30:11.510Z,12.90
2018-11-05T11:32:40.332Z,13.00
2018-11-05T11:35:09.529Z,12.90
2018-11-05T11:37:39.481Z,12.90
2018-11-05T11:40:14.364Z,12.90
2018-11-05T11:42:44.675Z,13.00
2018-11-05T11:45:14.452Z,13.10
2018-11-05T11:47:42.957Z,13.10
2018-11-05T11:50:13.007Z,13.20
2018-11-05T11:52:41.746Z,13.20
2018-11-05T11:55:12.903Z,13.20
2018-11-05T11:57:41.686Z,13.20
2018-11-05T12:00:16.300Z,13.00
2018-11-05T12:02:45.442Z,13.10
2018-11-05T12:05:14.021Z,13.10
2018-11-05T12:07:42.661Z,13.10
2018-11-05T12:10:15.895Z,13.10
2018-11-05T12:12:44.814Z,12.90
2018-11-05T12:15:14.784Z,12.90
2018-11-05T12:17:43.978Z,12.80
2018-11-05T12:20:15.126Z,12.80
2018-11-05T12:22:44.556Z,12.90
2018-11-05T12:25:13.200Z,13.00
2018-11-05T12:27:42.372Z,13.10
2018-11-05T12:30:16.245Z,13.10
2018-11-05T12:32:46.346Z,13.10
2018-11-05T12:35:14.736Z,13.10
2018-11-05T12:37:47.518Z,13.20
2018-11-05T12:40:17.007Z,13.00
2018-11-05T12:42:46.695Z,13.00
2018-11-05T12:45:15.204Z,13.00
2018-11-05T12:47:43.668Z,13.00
2018-11-05T12:50:15.363Z,13.10
2018-11-05T12:52:46.803Z,13.10
2018-11-05T12:55:15.327Z,13.10
2018-11-05T12:57:44.096Z,13.10
2018-11-05T13:00:16.568Z,13.10
2018-11-05T13:02:49.361Z,13.20
2018-11-05T13:05:17.942Z,13.20
2018-11-05T13:07:46.416Z,13.10
2018-11-05T13:10:14.973Z,13.10
2018-11-05T13:12:43.369Z,13.20
2018-11-05T13:15:12.217Z,13.20
2018-11-05T13:17:41.616Z,13.20
2018-11-05T13:20:15.963Z,13.30
2018-11-05T13:22:44.826Z,13.20
2018-11-05T13:25:13.584Z,13.20
2018-11-05T13:27:43.865Z,13.20
2018-11-05T13:30:13.110Z,13.10
2018-11-05T13:32:42.133Z,13.00
2018-11-05T13:35:14.398Z,13.10
2018-11-05T13:37:43.360Z,13.10
2018-11-05T13:40:17.009Z,13.20
2018-11-05T13:42:47.173Z,13.30
2018-11-05T13:45:17.148Z,13.30
2018-11-05T13:47:46.523Z,13.30
2018-11-05T13:50:15.044Z,13.30
2018-11-05T13:52:43.640Z,13.40
2018-11-05T13:55:13.587Z,13.40
2018-11-05T13:57:43.783Z,13.40
2018-11-05T14:00:14.975Z,13.40
2018-11-05T14:02:43.788Z,13.40
2018-11-05T14:05:12.987Z,13.50
2018-11-05T14:07:42.087Z,13.60
2018-11-05T14:10:14.491Z,13.70
2018-11-05T14:12:44.146Z,13.70
2018-11-05T14:15:12.650Z,13.60
2018-11-05T14:17:41.878Z,13.50
2018-11-05T14:20:11.330Z,13.50
2018-11-05T14:22:40.162Z,13.50
2018-11-05T14:25:12.383Z,13.50
2018-11-05T14:27:41.809Z,13.50
2018-11-05T14:30:12.233Z,13.40
2018-11-05T14:32:41.944Z,13.50
2018-11-05T14:35:10.429Z,13.70
2018-11-05T14:37:39.164Z,13.90
2018-11-05T14:40:12.224Z,14.00
2018-11-05T14:42:40.648Z,13.70
2018-11-05T14:45:11.573Z,13.50
2018-11-05T14:47:41.130Z,13.30
2018-11-05T14:50:12.498Z,13.10
2018-11-05T14:52:41.126Z,13.10
2018-11-05T14:55:12.055Z,13.00
2018-11-05T14:57:40.693Z,12.90
2018-11-05T15:00:14.238Z,12.70
2018-11-05T15:02:43.704Z,12.60
2018-11-05T15:05:13.146Z,12.50
2018-11-05T15:07:43.442Z,12.40
2018-11-05T15:10:13.819Z,12.30
2018-11-05T15:12:42.492Z,12.20
2018-11-05T15:15:12.831Z,12.20
2018-11-05T15:17:42.705Z,12.10
2018-11-05T15:20:14.074Z,12.00
2018-11-05T15:22:43.657Z,11.90
2018-11-05T15:25:12.647Z,11.80
2018-11-05T15:27:41.325Z,11.70
2018-11-05T15:30:17.793Z,11.60
2018-11-05T15:32:46.543Z,11.50
2018-11-05T15:35:15.294Z,11.40
2018-11-05T15:37:44.414Z,11.30
2018-11-05T15:40:17.861Z,11.20
2018-11-05T15:42:46.459Z,11.20
2018-11-05T15:45:16.691Z,11.10
2018-11-05T15:47:46.010Z,11.20
2018-11-05T15:50:16.177Z,11.30
2018-11-05T15:52:45.141Z,11.30
2018-11-05T15:55:13.438Z,11.20
2018-11-05T15:57:42.552Z,11.20
2018-11-05T16:00:17.028Z,11.30
2018-11-05T16:02:49.089Z,11.40
2018-11-05T16:05:18.270Z,11.30
2018-11-05T16:07:47.398Z,11.20
2018-11-05T16:10:16.317Z,11.10
2018-11-05T16:12:44.791Z,11.00
2018-11-05T16:15:13.943Z,10.90
2018-11-05T16:17:42.475Z,10.80
2018-11-05T16:20:15.726Z,10.70
2018-11-05T16:22:44.766Z,10.60
2018-11-05T16:25:13.340Z,10.60
2018-11-05T16:27:42.143Z,10.60
2018-11-05T16:30:13.103Z,10.60
2018-11-05T16:32:42.429Z,10.60
2018-11-05T16:35:12.049Z,10.60
2018-11-05T16:37:41.987Z,10.60
2018-11-05T16:40:13.540Z,10.50
2018-11-05T16:42:42.903Z,10.60
2018-11-05T16:45:11.539Z,10.50
2018-11-05T16:47:40.792Z,10.50
2018-11-05T16:50:14.811Z,10.50
2018-11-05T16:52:43.737Z,10.40
2018-11-05T16:55:13.541Z,10.50
2018-11-05T16:57:42.706Z,10.50
2018-11-05T17:00:11.942Z,10.50
2018-11-05T17:02:41.627Z,10.50
2018-11-05T17:05:09.901Z,10.40
2018-11-05T17:07:39.224Z,10.30
2018-11-05T17:10:10.610Z,10.20
2018-11-05T17:12:39.288Z,10.20
2018-11-05T17:15:09.818Z,10.10
2018-11-05T17:17:38.775Z,10.00
2018-11-05T17:20:10.812Z,10.00
2018-11-05T17:22:40.838Z,10.00
2018-11-05T17:25:10.386Z,9.90
2018-11-05T17:27:40.067Z,9.90
2018-11-05T17:30:17.756Z,9.80
2018-11-05T17:32:54.539Z,9.80
2018-11-05T17:35:23.105Z,9.80
2018-11-05T17:37:53.796Z,9.70
2018-11-05T17:40:23.518Z,9.70
2018-11-05T17:42:52.748Z,9.70
2018-11-05T17:45:22.618Z,9.70
2018-11-05T17:47:51.138Z,9.60
2018-11-05T17:50:22.773Z,9.50
2018-11-05T17:52:52.039Z,9.60
2018-11-05T17:55:20.764Z,9.70
2018-11-05T17:57:50.510Z,9.80
2018-11-05T18:00:20.649Z,9.80
2018-11-05T18:02:49.414Z,9.70
2018-11-05T18:05:22.329Z,9.70
2018-11-05T18:07:51.114Z,9.60
2018-11-05T18:10:20.021Z,9.50
2018-11-05T18:12:48.690Z,9.50
2018-11-05T18:15:17.411Z,9.40
2018-11-05T18:17:47.166Z,9.40
2018-11-05T18:20:16.924Z,9.30
2018-11-05T18:22:45.916Z,9.20
2018-11-05T18:25:16.058Z,9.20
2018-11-05T18:27:44.783Z,9.10
2018-11-05T18:30:14.005Z,9.00
2018-11-05T18:32:42.758Z,8.90
2018-11-05T18:35:12.652Z,8.80
2018-11-05T18:37:42.389Z,8.80
2018-11-05T18:40:13.160Z,8.90
2018-11-05T18:42:42.499Z,8.90
2018-11-05T18:45:12.014Z,8.80
2018-11-05T18:47:40.556Z,8.80
2018-11-05T18:50:12.135Z,8.80
2018-11-05T18:52:40.920Z,8.80
2018-11-05T18:55:12.084Z,8.80
2018-11-05T18:57:41.416Z,8.70
2018-11-05T19:00:18.150Z,8.70
2018-11-05T19:02:47.908Z,8.70
2018-11-05T19:05:16.930Z,8.70
2018-11-05T19:07:47.184Z,8.60
2018-11-05T19:10:17.005Z,8.60
2018-11-05T19:12:47.078Z,8.60
2018-11-05T19:15:17.287Z,8.70
2018-11-05T19:17:47.686Z,8.70
2018-11-05T19:20:18.173Z,8.70
2018-11-05T19:22:47.713Z,8.80
2018-11-05T19:25:16.915Z,8.70
2018-11-05T19:27:45.727Z,8.70
2018-11-05T19:30:18.427Z,8.60
2018-11-05T19:32:49.923Z,8.60
2018-11-05T19:35:20.930Z,8.60
2018-11-05T19:37:50.233Z,8.50
2018-11-05T19:40:19.934Z,8.50
2018-11-05T19:42:50.030Z,8.50
2018-11-05T19:45:20.267Z,8.50
2018-11-05T19:47:51.519Z,8.50
2018-11-05T19:50:23.681Z,8.50
2018-11-05T19:52:54.479Z,8.50
2018-11-05T19:55:23.506Z,8.60
2018-11-05T19:57:53.249Z,8.60
2018-11-05T20:00:26.560Z,8.60
2018-11-05T20:02:57.258Z,8.60
2018-11-05T20:05:26.263Z,8.60
2018-11-05T20:07:55.909Z,8.50
2018-11-05T20:10:27.771Z,8.50
2018-11-05T20:12:56.329Z,8.40
2018-11-05T20:15:26.208Z,8.40
2018-11-05T20:18:01.569Z,8.30
2018-11-05T20:20:30.378Z,8.30
2018-11-05T20:22:59.447Z,8.40
2018-11-05T20:25:28.136Z,8.30
2018-11-05T20:27:56.524Z,8.30
2018-11-05T20:30:26.979Z,8.30
2018-11-05T20:33:00.099Z,8.40
2018-11-05T20:35:28.651Z,8.40
2018-11-05T20:37:57.570Z,8.40
2018-11-05T20:40:26.370Z,8.40
2018-11-05T20:42:54.906Z,8.50
2018-11-05T20:45:24.160Z,8.60
2018-11-05T20:47:52.703Z,8.60
2018-11-05T20:50:21.488Z,8.60
2018-11-05T20:52:50.404Z,8.60
2018-11-05T20:55:19.201Z,8.60
2018-11-05T20:57:48.140Z,8.60
2018-11-05T21:00:20.187Z,8.60
2018-11-05T21:02:49.752Z,8.60
2018-11-05T21:05:19.080Z,8.50
2018-11-05T21:07:47.965Z,8.50
2018-11-05T21:10:18.510Z,8.50
2018-11-05T21:12:47.630Z,8.50
2018-11-05T21:15:17.436Z,8.50
2018-11-05T21:17:47.041Z,8.50
2018-11-05T21:20:15.820Z,8.50
2018-11-05T21:22:45.295Z,8.50
2018-11-05T21:25:13.601Z,8.50
2018-11-05T21:27:42.994Z,8.40
2018-11-05T21:30:15.534Z,8.40
2018-11-05T21:32:44.660Z,8.30
2018-11-05T21:35:14.794Z,8.30
2018-11-05T21:37:43.747Z,8.20
2018-11-05T21:40:13.606Z,8.20
2018-11-05T21:42:42.186Z,8.20
2018-11-05T21:45:14.664Z,8.20
2018-11-05T21:47:43.884Z,8.00
2018-11-05T21:50:15.074Z,8.00
2018-11-05T21:52:44.105Z,8.10
2018-11-05T21:55:13.503Z,8.20
2018-11-05T21:57:43.414Z,8.20
2018-11-05T22:00:15.019Z,8.10
2018-11-05T22:02:47.631Z,8.00
2018-11-05T22:05:16.502Z,8.00
2018-11-05T22:07:45.699Z,8.00
2018-11-05T22:10:14.345Z,8.00
2018-11-05T22:12:43.466Z,8.10
2018-11-05T22:15:12.122Z,8.20
2018-11-05T22:17:40.798Z,8.30
2018-11-05T22:20:10.996Z,8.30
2018-11-05T22:22:39.628Z,8.30
2018-11-05T22:25:09.108Z,8.30
2018-11-05T22:27:38.650Z,8.30
2018-11-05T22:30:08.668Z,8.20
2018-11-05T22:32:38.202Z,8.20
2018-11-05T22:35:07.450Z,8.10
2018-11-05T22:37:37.434Z,8.10
2018-11-05T22:40:07.957Z,8.20
2018-11-05T22:42:36.972Z,8.20
2018-11-05T22:45:05.781Z,8.20
2018-11-05T22:47:34.362Z,8.10
2018-11-05T22:50:02.799Z,8.10
2018-11-05T22:52:31.921Z,8.10
2018-11-05T22:55:00.619Z,8.00
2018-11-05T22:57:29.069Z,8.10
2018-11-05T22:59:57.544Z,8.00
2018-11-05T23:02:25.987Z,8.10
2018-11-05T23:04:54.673Z,8.00
2018-11-05T23:07:23.058Z,8.00
2018-11-05T23:09:51.669Z,7.90
2018-11-05T23:12:20.137Z,7.90
2018-11-05T23:14:51.032Z,7.90
2018-11-05T23:17:19.805Z,7.90
2018-11-05T23:19:48.513Z,8.00
2018-11-05T23:22:17.276Z,7.90
2018-11-05T23:24:45.739Z,7.90
2018-11-05T23:27:14.113Z,7.80
2018-11-05T23:29:43.139Z,7.70
2018-11-05T23:32:11.582Z,7.60
2018-11-05T23:34:39.982Z,7.60
2018-11-05T23:37:08.721Z,7.60
2018-11-05T23:39:37.764Z,7.60
2018-11-05T23:42:06.239Z,7.60
2018-11-05T23:44:34.832Z,7.60
2018-11-05T23:47:03.268Z,7.60
2018-11-05T23:49:31.942Z,7.60
2018-11-05T23:52:00.425Z,7.60
2018-11-05T23:54:29.179Z,7.60
2018-11-05T23:56:57.880Z,7.50
2018-11-05T23:59:26.619Z,7.50
